createdAt,value
2022-12-12T00:01:30.651Z,12.70
2022-12-12T00:04:00.210Z,14.30
2022-12-12T00:06:29.894Z,14.33
2022-12-12T00:08:59.005Z,13.30
2022-12-12T00:11:29.920Z,15.80
2022-12-12T00:13:59.743Z,13.13
2022-12-12T00:16:30.557Z,15.43
2022-12-12T00:19:00.896Z,14.40
2022-12-12T00:21:31.042Z,17.40
2022-12-12T00:24:00.183Z,14.00
2022-12-12T00:26:32.528Z,13.97
2022-12-12T00:29:03.164Z,15.57
2022-12-12T00:31:32.682Z,13.77
2022-12-12T00:34:01.825Z,13.60
2022-12-12T00:36:32.304Z,14.60
2022-12-12T00:39:01.543Z,15.40
2022-12-12T00:41:32.035Z,14.53
2022-12-12T00:44:01.104Z,15.93
2022-12-12T00:46:30.144Z,15.70
2022-12-12T00:49:01.019Z,15.27
2022-12-12T00:51:31.615Z,13.70
2022-12-12T00:54:01.259Z,15.40
2022-12-12T00:56:32.963Z,16.83
2022-12-12T00:59:04.119Z,15.13
2022-12-12T01:01:34.933Z,14.47
2022-12-12T01:04:04.984Z,14.53
2022-12-12T01:06:34.056Z,18.10
2022-12-12T01:09:03.075Z,16.17
2022-12-12T01:11:33.520Z,14.67
2022-12-12T01:14:03.162Z,14.40
2022-12-12T01:16:32.383Z,15.47
2022-12-12T01:19:01.779Z,15.87
2022-12-12T01:21:30.892Z,15.83
2022-12-12T01:23:59.931Z,14.90
2022-12-12T01:26:29.090Z,14.10
2022-12-12T01:28:59.567Z,15.70
2022-12-12T01:31:28.690Z,13.60
2022-12-12T01:33:57.728Z,15.73
2022-12-12T01:36:26.735Z,16.37
2022-12-12T01:38:57.311Z,16.23
2022-12-12T01:41:26.659Z,16.47
2022-12-12T01:43:56.096Z,17.57
2022-12-12T01:46:40.067Z,15.93
2022-12-12T01:49:17.055Z,15.10
2022-12-12T01:51:47.685Z,15.50
2022-12-12T01:54:20.463Z,14.50
2022-12-12T01:56:51.257Z,15.50
2022-12-12T01:59:24.354Z,12.63
2022-12-12T02:01:55.786Z,15.57
2022-12-12T02:04:25.730Z,15.00
2022-12-12T02:06:55.694Z,16.40
2022-12-12T02:09:26.560Z,15.03
2022-12-12T02:11:57.825Z,17.10
2022-12-12T02:14:30.482Z,16.17
2022-12-12T02:17:40.917Z,16.17
2022-12-12T02:20:44.509Z,15.17
2022-12-12T02:23:39.205Z,14.53
2022-12-12T02:26:37.794Z,15.27
2022-12-12T02:29:38.259Z,14.50
2022-12-12T02:32:13.160Z,14.00
2022-12-12T02:34:49.520Z,13.60
2022-12-12T02:37:27.060Z,15.57
2022-12-12T02:40:04.939Z,14.60
2022-12-12T02:42:45.137Z,14.60
2022-12-12T02:45:18.910Z,12.73
2022-12-12T02:47:53.403Z,14.53
2022-12-12T02:50:25.061Z,15.03
2022-12-12T02:52:54.151Z,11.60
2022-12-12T02:55:23.359Z,11.83
2022-12-12T02:57:53.530Z,11.03
2022-12-12T03:00:22.985Z,10.73
2022-12-12T03:03:40.959Z,12.70
2022-12-12T03:06:41.207Z,10.93
2022-12-12T03:09:17.790Z,10.30
2022-12-12T03:11:57.115Z,9.13
2022-12-12T03:14:28.498Z,12.93
2022-12-12T03:17:03.285Z,10.23
2022-12-12T03:19:42.360Z,9.60
2022-12-12T03:22:18.820Z,9.80
2022-12-12T03:24:56.215Z,9.20
2022-12-12T03:27:31.275Z,8.67
2022-12-12T03:30:03.768Z,8.70
2022-12-12T03:32:38.000Z,12.03
2022-12-12T03:35:15.619Z,10.60
2022-12-12T03:37:48.639Z,12.97
2022-12-12T03:40:23.774Z,11.37
2022-12-12T03:43:01.630Z,11.50
2022-12-12T03:45:35.788Z,12.20
2022-12-12T03:48:12.549Z,10.00
2022-12-12T03:50:47.031Z,9.70
2022-12-12T03:53:22.472Z,10.40
2022-12-12T03:55:55.252Z,11.47
2022-12-12T03:58:29.310Z,13.30
2022-12-12T04:01:00.632Z,11.10
2022-12-12T04:03:39.900Z,12.40
2022-12-12T04:06:28.740Z,11.77
2022-12-12T04:09:17.774Z,13.70
2022-12-12T04:12:17.098Z,14.97
2022-12-12T04:15:18.131Z,11.03
2022-12-12T04:17:59.758Z,13.57
2022-12-12T04:20:53.110Z,12.57
2022-12-12T04:23:31.656Z,12.77
2022-12-12T04:26:24.339Z,11.90
2022-12-12T04:29:01.303Z,12.40
2022-12-12T04:31:32.846Z,14.70
2022-12-12T04:34:07.479Z,13.17
2022-12-12T04:36:37.711Z,12.57
2022-12-12T04:39:10.440Z,15.17
2022-12-12T04:41:42.533Z,12.17
2022-12-12T04:44:13.718Z,15.00
2022-12-12T04:46:44.176Z,13.90
2022-12-12T04:49:19.135Z,12.13
2022-12-12T04:51:51.771Z,13.80
2022-12-12T04:54:27.748Z,11.80
2022-12-12T04:57:01.495Z,12.83
2022-12-12T04:59:31.461Z,13.27
2022-12-12T05:02:06.553Z,14.57
2022-12-12T05:04:41.827Z,12.17
2022-12-12T05:07:15.749Z,13.73
2022-12-12T05:09:46.522Z,10.93
2022-12-12T05:12:17.471Z,11.80
2022-12-12T05:14:46.491Z,16.03
2022-12-12T05:17:20.530Z,10.57
2022-12-12T05:19:49.599Z,10.70
2022-12-12T05:22:18.614Z,11.17
2022-12-12T05:24:49.018Z,11.30
2022-12-12T05:27:18.019Z,9.93
2022-12-12T05:29:47.004Z,11.60
2022-12-12T05:32:15.996Z,12.57
2022-12-12T05:34:45.040Z,13.73
2022-12-12T05:37:14.044Z,11.60
2022-12-12T05:39:43.200Z,12.77
2022-12-12T05:42:13.643Z,14.70
2022-12-12T05:44:43.019Z,13.47
2022-12-12T05:47:11.994Z,13.23
2022-12-12T05:49:41.024Z,11.73
2022-12-12T05:52:10.009Z,12.70
2022-12-12T05:54:40.559Z,12.37
2022-12-12T05:57:09.588Z,14.53
2022-12-12T05:59:40.009Z,13.30
2022-12-12T06:02:09.043Z,13.33
2022-12-12T06:04:38.105Z,15.40
2022-12-12T06:07:07.304Z,15.20
2022-12-12T06:09:36.745Z,16.80
2022-12-12T06:12:06.279Z,15.33
2022-12-12T06:14:35.367Z,14.83
2022-12-12T06:17:06.125Z,15.73
2022-12-12T06:19:35.218Z,17.70
2022-12-12T06:22:04.315Z,15.03
2022-12-12T06:24:33.698Z,15.73
2022-12-12T06:27:04.098Z,15.80
2022-12-12T06:29:34.030Z,16.47
2022-12-12T06:32:05.011Z,16.90
2022-12-12T06:34:34.169Z,17.13
2022-12-12T06:37:03.637Z,15.97
2022-12-12T06:39:32.711Z,19.40
2022-12-12T06:42:01.930Z,19.77
2022-12-12T06:44:31.059Z,18.27
2022-12-12T06:47:00.109Z,18.07
2022-12-12T06:49:30.599Z,16.63
2022-12-12T06:51:59.658Z,19.57
2022-12-12T06:54:28.721Z,19.93
2022-12-12T06:56:57.860Z,18.17
2022-12-12T06:59:29.178Z,16.93
2022-12-12T07:01:58.859Z,17.37
2022-12-12T07:04:29.470Z,17.40
2022-12-12T07:06:58.740Z,16.73
2022-12-12T07:09:28.599Z,16.83
2022-12-12T07:11:57.656Z,15.30
2022-12-12T07:14:26.861Z,19.93
2022-12-12T07:16:55.945Z,16.13
2022-12-12T07:19:25.606Z,17.90
2022-12-12T07:21:56.018Z,15.03
2022-12-12T07:24:25.016Z,15.10
2022-12-12T07:26:54.025Z,16.93
2022-12-12T07:29:22.994Z,15.00
2022-12-12T07:31:51.963Z,16.70
2022-12-12T07:34:20.982Z,16.80
2022-12-12T07:36:50.366Z,15.07
2022-12-12T07:39:21.263Z,17.43
2022-12-12T07:41:50.334Z,17.83
2022-12-12T07:44:23.361Z,15.67
2022-12-12T07:46:52.637Z,16.03
2022-12-12T07:49:21.855Z,16.93
2022-12-12T07:51:50.906Z,17.90
2022-12-12T07:54:21.499Z,16.90
2022-12-12T07:56:50.513Z,16.87
2022-12-12T07:59:19.526Z,16.13
2022-12-12T08:01:48.691Z,16.67
2022-12-12T08:04:17.895Z,15.13
2022-12-12T08:06:47.031Z,16.30
2022-12-12T08:09:16.085Z,16.27
2022-12-12T08:11:46.858Z,17.70
2022-12-12T08:14:17.174Z,17.13
2022-12-12T08:16:46.496Z,16.50
2022-12-12T08:19:15.938Z,14.33
2022-12-12T08:21:45.614Z,14.90
2022-12-12T08:24:16.530Z,13.50
2022-12-12T08:26:47.029Z,16.63
2022-12-12T08:29:16.434Z,13.53
2022-12-12T08:31:45.903Z,15.93
2022-12-12T08:34:15.014Z,15.40
2022-12-12T08:36:44.117Z,13.43
2022-12-12T08:39:16.187Z,12.80
2022-12-12T08:41:48.743Z,14.33
2022-12-12T08:44:19.430Z,13.80
2022-12-12T08:46:49.266Z,13.40
2022-12-12T08:49:18.809Z,11.20
2022-12-12T08:51:49.950Z,12.47
2022-12-12T08:54:19.165Z,14.60
2022-12-12T08:56:49.676Z,12.27
2022-12-12T08:59:18.690Z,16.83
2022-12-12T09:01:47.829Z,12.70
2022-12-12T09:04:17.102Z,13.50
2022-12-12T09:06:46.383Z,14.37
2022-12-12T09:09:15.749Z,14.07
2022-12-12T09:11:45.795Z,11.97
2022-12-12T09:14:16.454Z,13.60
2022-12-12T09:16:45.842Z,9.93
2022-12-12T09:19:14.999Z,13.00
2022-12-12T09:21:45.175Z,11.80
2022-12-12T09:24:14.195Z,13.13
2022-12-12T09:26:43.359Z,12.30
2022-12-12T09:29:13.115Z,14.43
2022-12-12T09:31:44.379Z,12.03
2022-12-12T09:34:13.909Z,11.43
2022-12-12T09:36:43.075Z,10.30
2022-12-12T09:39:12.189Z,11.20
2022-12-12T09:41:41.365Z,12.33
2022-12-12T09:44:16.199Z,11.27
2022-12-12T09:46:49.307Z,10.97
2022-12-12T09:49:26.649Z,10.23
2022-12-12T09:51:57.862Z,11.97
2022-12-12T09:54:28.236Z,10.30
2022-12-12T09:57:10.344Z,12.63
2022-12-12T09:59:45.064Z,13.03
2022-12-12T10:02:35.352Z,11.10
2022-12-12T10:05:10.463Z,9.00
2022-12-12T10:07:45.602Z,10.97
2022-12-12T10:10:23.285Z,10.10
2022-12-12T10:12:54.056Z,9.00
2022-12-12T10:15:31.090Z,9.77
2022-12-12T10:18:06.644Z,10.63
2022-12-12T10:20:43.734Z,8.70
2022-12-12T10:23:21.099Z,10.33
2022-12-12T10:25:57.849Z,10.97
2022-12-12T10:28:30.017Z,8.47
2022-12-12T10:31:10.632Z,10.00
2022-12-12T10:33:53.944Z,8.50
2022-12-12T10:36:35.617Z,8.63
2022-12-12T10:39:15.826Z,8.60
2022-12-12T10:41:51.530Z,9.33
2022-12-12T10:44:42.889Z,8.80
2022-12-12T10:47:14.884Z,7.33
2022-12-12T10:49:45.405Z,7.67
2022-12-12T10:52:19.502Z,10.80
2022-12-12T10:54:54.058Z,11.30
2022-12-12T10:57:25.601Z,8.03
2022-12-12T10:59:56.847Z,9.37
2022-12-12T11:02:38.452Z,7.40
2022-12-12T11:05:19.604Z,7.30
2022-12-12T11:07:50.559Z,9.57
2022-12-12T11:10:30.470Z,10.17
2022-12-12T11:13:14.570Z,8.63
2022-12-12T11:15:51.271Z,11.33
2022-12-12T11:18:22.718Z,6.17
2022-12-12T11:20:57.733Z,6.53
2022-12-12T11:23:28.999Z,8.97
2022-12-12T11:26:00.199Z,7.40
2022-12-12T11:28:32.615Z,6.97
2022-12-12T11:31:04.737Z,7.80
2022-12-12T11:33:36.486Z,7.63
2022-12-12T11:36:08.637Z,8.37
2022-12-12T11:38:42.153Z,8.13
2022-12-12T11:41:12.820Z,8.37
2022-12-12T11:43:58.466Z,8.63
2022-12-12T11:46:29.301Z,8.50
2022-12-12T11:49:01.294Z,8.77
2022-12-12T11:51:38.093Z,9.60
2022-12-12T11:54:13.109Z,10.07
2022-12-12T11:56:47.271Z,9.53
2022-12-12T11:59:48.204Z,9.43
2022-12-12T12:02:32.840Z,6.83
2022-12-12T12:05:10.629Z,8.67
2022-12-12T12:07:58.969Z,6.80
2022-12-12T12:10:42.697Z,9.37
2022-12-12T12:13:25.020Z,8.87
2022-12-12T12:16:02.144Z,7.60
2022-12-12T12:18:41.343Z,8.10
2022-12-12T12:21:24.205Z,9.27
2022-12-12T12:24:08.738Z,8.30
2022-12-12T12:26:47.155Z,11.97
2022-12-12T12:29:43.009Z,7.80
2022-12-12T12:32:20.479Z,11.57
2022-12-12T12:35:01.139Z,8.23
2022-12-12T12:37:40.219Z,9.13
2022-12-12T12:40:24.580Z,9.03
2022-12-12T12:43:18.926Z,10.97
2022-12-12T12:45:53.333Z,9.97
2022-12-12T12:48:28.553Z,9.20
2022-12-12T12:51:04.938Z,10.67
2022-12-12T12:53:39.409Z,11.90
2022-12-12T12:56:26.027Z,9.10
2022-12-12T12:58:59.588Z,11.03
2022-12-12T13:01:33.454Z,10.50
2022-12-12T13:04:07.354Z,9.00
2022-12-12T13:06:43.960Z,13.20
2022-12-12T13:09:25.630Z,10.57
2022-12-12T13:12:03.235Z,10.57
2022-12-12T13:14:41.269Z,12.93
2022-12-12T13:17:16.811Z,11.80
2022-12-12T13:19:48.889Z,10.83
2022-12-12T13:22:26.184Z,14.93
2022-12-12T13:25:03.108Z,12.40
2022-12-12T13:27:37.359Z,11.13
2022-12-12T13:30:15.076Z,12.27
2022-12-12T13:33:32.930Z,12.43
2022-12-12T13:36:10.693Z,12.20
2022-12-12T13:38:40.706Z,11.20
2022-12-12T13:41:11.451Z,10.27
2022-12-12T13:43:50.186Z,12.07
2022-12-12T13:46:38.061Z,13.17
2022-12-12T13:49:38.893Z,13.63
2022-12-12T13:52:30.409Z,11.27
2022-12-12T13:55:24.058Z,11.27
2022-12-12T13:58:17.958Z,12.53
2022-12-12T14:00:50.384Z,11.83
2022-12-12T14:03:29.178Z,11.53
2022-12-12T14:06:11.278Z,13.40
2022-12-12T14:08:48.859Z,12.00
2022-12-12T14:11:33.574Z,13.47
2022-12-12T14:14:06.778Z,13.30
2022-12-12T14:16:38.590Z,17.80
2022-12-12T14:19:18.431Z,13.43
2022-12-12T14:21:49.080Z,12.97
2022-12-12T14:24:54.943Z,14.63
2022-12-12T14:27:57.294Z,12.43
2022-12-12T14:30:33.979Z,12.50
2022-12-12T14:33:10.340Z,14.23
2022-12-12T14:35:48.463Z,12.90
2022-12-12T14:38:30.300Z,14.27
2022-12-12T14:41:03.513Z,13.33
2022-12-12T14:43:38.667Z,12.00
2022-12-12T14:46:08.079Z,13.07
2022-12-12T14:48:38.884Z,11.33
2022-12-12T14:51:12.095Z,13.20
2022-12-12T14:53:48.698Z,12.17
2022-12-12T14:56:21.364Z,12.87
2022-12-12T14:58:59.126Z,11.80
2022-12-12T15:01:32.606Z,11.60
2022-12-12T15:04:05.668Z,13.30
2022-12-12T15:06:37.911Z,10.90
2022-12-12T15:09:26.701Z,12.60
2022-12-12T15:11:57.877Z,11.30
2022-12-12T15:14:28.872Z,11.37
2022-12-12T15:17:02.951Z,11.27
2022-12-12T15:19:38.976Z,11.73
2022-12-12T15:22:12.962Z,12.57
2022-12-12T15:24:42.163Z,10.63
2022-12-12T15:27:20.006Z,11.97
2022-12-12T15:29:49.120Z,13.23
2022-12-12T15:32:21.301Z,12.43
2022-12-12T15:35:02.850Z,11.97
2022-12-12T15:37:33.898Z,11.33
2022-12-12T15:40:31.125Z,9.60
2022-12-12T15:43:02.497Z,11.60
2022-12-12T15:45:34.716Z,11.40
2022-12-12T15:48:05.692Z,9.20
2022-12-12T15:50:50.334Z,12.83
2022-12-12T15:53:23.023Z,11.37
2022-12-12T15:55:58.257Z,9.63
2022-12-12T15:58:31.638Z,12.77
2022-12-12T16:01:08.707Z,10.50
2022-12-12T16:04:00.110Z,10.77
2022-12-12T16:06:33.395Z,10.60
2022-12-12T16:09:08.159Z,11.80
2022-12-12T16:11:44.133Z,11.87
2022-12-12T16:14:35.495Z,10.53
2022-12-12T16:17:10.097Z,11.50
2022-12-12T16:19:43.002Z,11.00
2022-12-12T16:22:22.342Z,13.63
2022-12-12T16:24:53.343Z,12.03
2022-12-12T16:27:22.997Z,12.73
2022-12-12T16:29:52.721Z,12.50
2022-12-12T16:32:22.368Z,10.23
2022-12-12T16:34:51.419Z,11.50
2022-12-12T16:37:21.991Z,10.17
2022-12-12T16:39:51.307Z,11.70
2022-12-12T16:42:22.246Z,11.20
2022-12-12T16:44:51.636Z,11.77
2022-12-12T16:47:23.639Z,13.43
2022-12-12T16:49:53.086Z,12.10
2022-12-12T16:52:23.819Z,11.60
2022-12-12T16:54:53.999Z,12.87
2022-12-12T16:57:23.292Z,10.10
2022-12-12T16:59:52.514Z,14.90
2022-12-12T17:02:24.189Z,10.50
2022-12-12T17:04:53.802Z,16.10
2022-12-12T17:07:24.665Z,12.93
2022-12-12T17:09:54.911Z,12.87
2022-12-12T17:12:24.164Z,12.97
2022-12-12T17:14:53.301Z,14.50
2022-12-12T17:17:22.358Z,13.93
2022-12-12T17:19:51.670Z,13.17
2022-12-12T17:22:21.341Z,12.03
2022-12-12T17:24:51.820Z,13.10
2022-12-12T17:27:21.361Z,12.27
2022-12-12T17:29:51.444Z,17.03
2022-12-12T17:32:24.453Z,12.27
2022-12-12T17:34:55.392Z,11.87
2022-12-12T17:37:24.708Z,10.93
2022-12-12T17:39:56.218Z,12.23
2022-12-12T17:42:25.593Z,13.43
2022-12-12T17:44:55.361Z,10.90
2022-12-12T17:47:24.730Z,12.57
2022-12-12T17:49:54.323Z,11.37
2022-12-12T17:52:23.641Z,12.73
2022-12-12T17:55:55.154Z,14.33
2022-12-12T17:57:44.016Z,12.53
2022-12-12T18:00:15.047Z,10.83
2022-12-12T18:02:44.718Z,13.40
2022-12-12T18:05:15.234Z,14.97
2022-12-12T18:07:45.152Z,12.47
2022-12-12T18:10:14.836Z,12.30
2022-12-12T18:12:51.414Z,10.30
2022-12-12T18:15:21.666Z,13.33
2022-12-12T18:17:52.990Z,11.43
2022-12-12T18:20:26.676Z,9.87
2022-12-12T18:22:58.983Z,11.00
2022-12-12T18:25:28.894Z,10.23
2022-12-12T18:28:00.530Z,11.63
2022-12-12T18:30:29.991Z,11.33
2022-12-12T18:33:03.291Z,11.03
2022-12-12T18:35:32.991Z,13.23
2022-12-12T18:38:03.179Z,11.73
2022-12-12T18:40:32.522Z,12.00
2022-12-12T18:43:04.874Z,9.63
2022-12-12T18:45:38.073Z,11.00
2022-12-12T18:48:08.857Z,11.80
2022-12-12T18:50:40.453Z,12.73
2022-12-12T18:53:10.761Z,10.50
2022-12-12T18:55:45.295Z,11.17
2022-12-12T18:58:17.959Z,10.83
2022-12-12T19:00:51.362Z,11.33
2022-12-12T19:03:25.234Z,13.00
2022-12-12T19:05:58.839Z,11.93
2022-12-12T19:08:28.407Z,10.30
2022-12-12T19:10:58.515Z,15.40
2022-12-12T19:13:32.666Z,10.33
2022-12-12T19:16:11.314Z,11.33
2022-12-12T19:18:42.242Z,11.43
2022-12-12T19:21:15.230Z,11.90
2022-12-12T19:23:47.323Z,11.07
2022-12-12T19:26:20.361Z,14.17
2022-12-12T19:28:53.123Z,13.87
2022-12-12T19:31:24.442Z,13.60
2022-12-12T19:33:55.500Z,14.67
2022-12-12T19:36:29.549Z,11.60
2022-12-12T19:39:01.607Z,12.43
2022-12-12T19:41:32.816Z,13.83
2022-12-12T19:44:05.404Z,13.90
2022-12-12T19:46:35.747Z,10.93
2022-12-12T19:49:10.480Z,14.30
2022-12-12T19:51:42.666Z,12.70
2022-12-12T19:54:16.350Z,14.67
2022-12-12T19:56:48.424Z,14.03
2022-12-12T19:59:21.584Z,13.73
2022-12-12T20:01:53.010Z,15.57
2022-12-12T20:04:26.177Z,14.30
2022-12-12T20:06:57.110Z,13.03
2022-12-12T20:09:29.328Z,12.43
2022-12-12T20:12:01.244Z,14.70
2022-12-12T20:14:36.788Z,11.73
2022-12-12T20:17:09.090Z,14.20
2022-12-12T20:19:39.210Z,15.13
2022-12-12T20:22:11.758Z,15.10
2022-12-12T20:24:42.655Z,16.17
2022-12-12T20:27:13.014Z,17.83
2022-12-12T20:29:47.035Z,14.43
2022-12-12T20:32:17.440Z,16.93
2022-12-12T20:34:49.077Z,14.53
2022-12-12T20:37:20.320Z,15.33
2022-12-12T20:39:51.437Z,15.00
2022-12-12T20:42:21.651Z,13.63
2022-12-12T20:44:53.022Z,17.80
2022-12-12T20:47:23.790Z,17.20
2022-12-12T20:49:55.475Z,12.23
2022-12-12T20:52:25.546Z,15.43
2022-12-12T20:54:55.838Z,15.37
2022-12-12T20:57:28.557Z,14.57
2022-12-12T21:00:01.009Z,12.83
2022-12-12T21:02:30.988Z,15.10
2022-12-12T21:05:00.402Z,12.30
2022-12-12T21:07:30.166Z,14.00
2022-12-12T21:09:59.879Z,12.33
2022-12-12T21:12:29.578Z,14.23
2022-12-12T21:15:02.973Z,13.30
2022-12-12T21:17:33.093Z,13.80
2022-12-12T21:20:06.504Z,16.00
2022-12-12T21:22:36.968Z,13.00
2022-12-12T21:25:06.565Z,13.50
2022-12-12T21:27:35.900Z,16.57
2022-12-12T21:30:07.498Z,14.60
2022-12-12T21:32:36.911Z,13.30
2022-12-12T21:35:06.666Z,13.70
2022-12-12T21:37:40.261Z,12.93
2022-12-12T21:40:10.990Z,14.87
2022-12-12T21:42:40.039Z,16.83
2022-12-12T21:45:12.553Z,13.60
2022-12-12T21:47:41.798Z,13.10
2022-12-12T21:50:11.760Z,15.17
2022-12-12T21:52:40.827Z,15.70
2022-12-12T21:55:10.329Z,15.27
2022-12-12T21:57:39.390Z,17.53
2022-12-12T22:00:14.660Z,14.43
2022-12-12T22:02:48.311Z,13.40
2022-12-12T22:05:19.002Z,17.13
2022-12-12T22:07:48.193Z,13.43
2022-12-12T22:10:17.376Z,13.97
2022-12-12T22:12:57.557Z,13.13
2022-12-12T22:15:28.238Z,11.87
2022-12-12T22:17:57.437Z,12.10
2022-12-12T22:20:26.438Z,12.80
2022-12-12T22:22:55.661Z,14.50
2022-12-12T22:25:24.643Z,11.53
2022-12-12T22:27:53.655Z,13.83
2022-12-12T22:30:22.701Z,12.10
2022-12-12T22:32:53.217Z,13.63
2022-12-12T22:35:22.218Z,12.90
2022-12-12T22:37:51.401Z,13.47
2022-12-12T22:40:20.499Z,10.50
2022-12-12T22:42:49.844Z,13.43
2022-12-12T22:45:19.037Z,14.03
2022-12-12T22:47:48.098Z,12.80
2022-12-12T22:50:18.756Z,11.53
2022-12-12T22:52:47.863Z,15.67
2022-12-12T22:55:17.044Z,12.73
2022-12-12T22:57:48.458Z,13.50
2022-12-12T23:00:19.010Z,10.33
2022-12-12T23:02:48.038Z,11.63
2022-12-12T23:05:19.343Z,12.73
2022-12-12T23:07:48.750Z,9.97
2022-12-12T23:10:17.958Z,13.60
2022-12-12T23:12:47.036Z,11.63
2022-12-12T23:15:16.349Z,13.83
2022-12-12T23:17:45.661Z,31.97
2022-12-12T23:20:14.754Z,15.87
2022-12-12T23:22:46.659Z,14.10
2022-12-12T23:25:15.985Z,16.70
2022-12-12T23:27:45.124Z,15.03
2022-12-12T23:30:14.265Z,16.40
2022-12-12T23:32:43.359Z,15.60
2022-12-12T23:35:12.778Z,14.70
2022-12-12T23:37:41.979Z,14.30
2022-12-12T23:40:13.663Z,14.80
2022-12-12T23:42:42.664Z,11.80
2022-12-12T23:45:12.551Z,13.00
2022-12-12T23:47:41.916Z,13.47
2022-12-12T23:50:11.234Z,19.20
2022-12-12T23:52:40.275Z,15.13
2022-12-12T23:55:11.639Z,13.60
2022-12-12T23:57:40.836Z,12.97
